sensor_id;sensor_type;location;lat;lon;timestamp;P1;durP1;ratioP1;P2;durP2;ratioP2
68234;SDS011;55052;52.056;5.296;2024-03-08T00:01:07;31.67;;;15.15;;
68234;SDS011;55052;52.056;5.296;2024-03-08T00:03:34;29.42;;;17.13;;
68234;SDS011;55052;52.056;5.296;2024-03-08T00:06:01;31.80;;;15.65;;
68234;SDS011;55052;52.056;5.296;2024-03-08T00:08:28;32.20;;;17.15;;
68234;SDS011;55052;52.056;5.296;2024-03-08T00:10:57;29.80;;;15.70;;
68234;SDS011;55052;52.056;5.296;2024-03-08T00:13:24;29.98;;;16.65;;
68234;SDS011;55052;52.056;5.296;2024-03-08T00:15:51;30.42;;;15.98;;
68234;SDS011;55052;52.056;5.296;2024-03-08T00:18:18;33.38;;;17.00;;
68234;SDS011;55052;52.056;5.296;2024-03-08T00:20:45;26.83;;;16.15;;
68234;SDS011;55052;52.056;5.296;2024-03-08T00:23:12;30.25;;;17.08;;
68234;SDS011;55052;52.056;5.296;2024-03-08T00:25:39;29.92;;;15.18;;
68234;SDS011;55052;52.056;5.296;2024-03-08T00:28:05;36.65;;;18.35;;
68234;SDS011;55052;52.056;5.296;2024-03-08T00:30:32;33.70;;;17.83;;
68234;SDS011;55052;52.056;5.296;2024-03-08T00:32:59;28.50;;;15.85;;
68234;SDS011;55052;52.056;5.296;2024-03-08T00:35:26;34.63;;;16.83;;
68234;SDS011;55052;52.056;5.296;2024-03-08T00:37:53;33.65;;;16.88;;
68234;SDS011;55052;52.056;5.296;2024-03-08T00:40:22;31.73;;;15.48;;
68234;SDS011;55052;52.056;5.296;2024-03-08T00:42:49;28.88;;;16.33;;
68234;SDS011;55052;52.056;5.296;2024-03-08T00:45:16;29.95;;;16.25;;
68234;SDS011;55052;52.056;5.296;2024-03-08T00:47:43;29.15;;;15.95;;
68234;SDS011;55052;52.056;5.296;2024-03-08T00:50:11;29.70;;;16.85;;
68234;SDS011;55052;52.056;5.296;2024-03-08T00:52:39;28.35;;;16.23;;
68234;SDS011;55052;52.056;5.296;2024-03-08T00:55:06;29.50;;;14.93;;
68234;SDS011;55052;52.056;5.296;2024-03-08T00:57:36;33.38;;;16.17;;
68234;SDS011;55052;52.056;5.296;2024-03-08T01:00:05;27.45;;;16.20;;
68234;SDS011;55052;52.056;5.296;2024-03-08T01:02:39;28.88;;;16.45;;
68234;SDS011;55052;52.056;5.296;2024-03-08T01:05:06;29.58;;;17.05;;
68234;SDS011;55052;52.056;5.296;2024-03-08T01:07:34;30.38;;;16.58;;
68234;SDS011;55052;52.056;5.296;2024-03-08T01:10:04;29.95;;;16.17;;
68234;SDS011;55052;52.056;5.296;2024-03-08T01:12:38;30.63;;;16.17;;
68234;SDS011;55052;52.056;5.296;2024-03-08T01:15:06;34.72;;;16.10;;
68234;SDS011;55052;52.056;5.296;2024-03-08T01:17:33;29.02;;;16.20;;
68234;SDS011;55052;52.056;5.296;2024-03-08T01:20:00;27.95;;;15.77;;
68234;SDS011;55052;52.056;5.296;2024-03-08T01:22:27;29.75;;;16.67;;
68234;SDS011;55052;52.056;5.296;2024-03-08T01:24:57;29.10;;;16.30;;
68234;SDS011;55052;52.056;5.296;2024-03-08T01:27:24;30.95;;;16.95;;
68234;SDS011;55052;52.056;5.296;2024-03-08T01:29:51;33.25;;;16.58;;
68234;SDS011;55052;52.056;5.296;2024-03-08T01:32:18;31.27;;;17.83;;
68234;SDS011;55052;52.056;5.296;2024-03-08T01:34:45;33.47;;;17.23;;
68234;SDS011;55052;52.056;5.296;2024-03-08T01:37:12;32.55;;;17.10;;
68234;SDS011;55052;52.056;5.296;2024-03-08T01:39:40;31.98;;;16.92;;
68234;SDS011;55052;52.056;5.296;2024-03-08T01:42:07;31.73;;;16.15;;
68234;SDS011;55052;52.056;5.296;2024-03-08T01:44:34;30.63;;;16.55;;
68234;SDS011;55052;52.056;5.296;2024-03-08T01:47:01;33.33;;;17.02;;
68234;SDS011;55052;52.056;5.296;2024-03-08T01:49:28;31.17;;;17.20;;
68234;SDS011;55052;52.056;5.296;2024-03-08T01:51:56;33.05;;;16.60;;
68234;SDS011;55052;52.056;5.296;2024-03-08T01:54:22;31.02;;;17.23;;
68234;SDS011;55052;52.056;5.296;2024-03-08T01:56:50;31.08;;;17.25;;
68234;SDS011;55052;52.056;5.296;2024-03-08T01:59:19;32.58;;;16.88;;
68234;SDS011;55052;52.056;5.296;2024-03-08T02:01:46;33.60;;;17.27;;
68234;SDS011;55052;52.056;5.296;2024-03-08T02:04:14;32.80;;;16.30;;
68234;SDS011;55052;52.056;5.296;2024-03-08T02:06:41;36.45;;;17.45;;
68234;SDS011;55052;52.056;5.296;2024-03-08T02:09:07;28.85;;;16.50;;
68234;SDS011;55052;52.056;5.296;2024-03-08T02:11:34;29.85;;;16.40;;
68234;SDS011;55052;52.056;5.296;2024-03-08T02:14:03;30.75;;;16.17;;
68234;SDS011;55052;52.056;5.296;2024-03-08T02:16:32;30.67;;;16.00;;
68234;SDS011;55052;52.056;5.296;2024-03-08T02:18:59;31.63;;;16.60;;
68234;SDS011;55052;52.056;5.296;2024-03-08T02:21:26;32.10;;;17.20;;
68234;SDS011;55052;52.056;5.296;2024-03-08T02:23:53;31.73;;;16.88;;
68234;SDS011;55052;52.056;5.296;2024-03-08T02:26:20;31.02;;;17.52;;
68234;SDS011;55052;52.056;5.296;2024-03-08T02:28:47;30.20;;;16.25;;
68234;SDS011;55052;52.056;5.296;2024-03-08T02:31:15;34.50;;;18.23;;
68234;SDS011;55052;52.056;5.296;2024-03-08T02:33:42;34.10;;;16.70;;
68234;SDS011;55052;52.056;5.296;2024-03-08T02:36:09;31.83;;;16.70;;
68234;SDS011;55052;52.056;5.296;2024-03-08T02:38:36;35.70;;;17.77;;
68234;SDS011;55052;52.056;5.296;2024-03-08T02:41:04;30.13;;;16.30;;
68234;SDS011;55052;52.056;5.296;2024-03-08T02:43:31;36.13;;;17.70;;
68234;SDS011;55052;52.056;5.296;2024-03-08T02:45:58;32.00;;;17.98;;
68234;SDS011;55052;52.056;5.296;2024-03-08T02:48:26;32.05;;;16.83;;
68234;SDS011;55052;52.056;5.296;2024-03-08T02:50:53;28.45;;;16.15;;
68234;SDS011;55052;52.056;5.296;2024-03-08T02:53:20;33.58;;;17.33;;
68234;SDS011;55052;52.056;5.296;2024-03-08T02:55:47;32.05;;;16.77;;
68234;SDS011;55052;52.056;5.296;2024-03-08T02:58:13;39.30;;;17.98;;
68234;SDS011;55052;52.056;5.296;2024-03-08T03:00:41;34.78;;;18.75;;
68234;SDS011;55052;52.056;5.296;2024-03-08T03:03:08;31.58;;;17.08;;
68234;SDS011;55052;52.056;5.296;2024-03-08T03:05:35;32.08;;;17.75;;
68234;SDS011;55052;52.056;5.296;2024-03-08T03:08:03;30.75;;;18.08;;
68234;SDS011;55052;52.056;5.296;2024-03-08T03:10:36;33.85;;;18.25;;
68234;SDS011;55052;52.056;5.296;2024-03-08T03:13:03;32.13;;;17.85;;
68234;SDS011;55052;52.056;5.296;2024-03-08T03:15:35;31.35;;;17.60;;
68234;SDS011;55052;52.056;5.296;2024-03-08T03:18:03;32.33;;;17.63;;
68234;SDS011;55052;52.056;5.296;2024-03-08T03:20:30;29.08;;;16.85;;
68234;SDS011;55052;52.056;5.296;2024-03-08T03:23:03;34.15;;;17.80;;
68234;SDS011;55052;52.056;5.296;2024-03-08T03:25:30;29.80;;;17.90;;
68234;SDS011;55052;52.056;5.296;2024-03-08T03:28:01;33.70;;;18.75;;
68234;SDS011;55052;52.056;5.296;2024-03-08T03:30:29;33.53;;;17.98;;
68234;SDS011;55052;52.056;5.296;2024-03-08T03:33:02;30.25;;;17.65;;
68234;SDS011;55052;52.056;5.296;2024-03-08T03:35:34;30.77;;;16.65;;
68234;SDS011;55052;52.056;5.296;2024-03-08T03:38:03;31.55;;;18.83;;
68234;SDS011;55052;52.056;5.296;2024-03-08T03:40:39;33.92;;;18.60;;
68234;SDS011;55052;52.056;5.296;2024-03-08T03:43:07;33.92;;;17.30;;
68234;SDS011;55052;52.056;5.296;2024-03-08T03:45:36;37.35;;;18.40;;
68234;SDS011;55052;52.056;5.296;2024-03-08T03:48:04;32.88;;;17.65;;
68234;SDS011;55052;52.056;5.296;2024-03-08T03:50:39;31.85;;;18.33;;
68234;SDS011;55052;52.056;5.296;2024-03-08T03:53:06;32.67;;;18.63;;
68234;SDS011;55052;52.056;5.296;2024-03-08T03:55:34;29.85;;;17.17;;
68234;SDS011;55052;52.056;5.296;2024-03-08T03:58:03;30.98;;;17.25;;
68234;SDS011;55052;52.056;5.296;2024-03-08T04:00:30;29.33;;;17.85;;
68234;SDS011;55052;52.056;5.296;2024-03-08T04:02:57;28.50;;;17.33;;
68234;SDS011;55052;52.056;5.296;2024-03-08T04:05:27;33.40;;;18.70;;
68234;SDS011;55052;52.056;5.296;2024-03-08T04:07:54;30.83;;;18.25;;
68234;SDS011;55052;52.056;5.296;2024-03-08T04:10:21;32.60;;;18.45;;
68234;SDS011;55052;52.056;5.296;2024-03-08T04:12:48;29.42;;;17.38;;
68234;SDS011;55052;52.056;5.296;2024-03-08T04:15:14;32.85;;;18.02;;
68234;SDS011;55052;52.056;5.296;2024-03-08T04:17:42;31.95;;;17.25;;
68234;SDS011;55052;52.056;5.296;2024-03-08T04:20:09;35.15;;;19.25;;
68234;SDS011;55052;52.056;5.296;2024-03-08T04:22:37;31.83;;;18.77;;
68234;SDS011;55052;52.056;5.296;2024-03-08T04:25:06;30.73;;;17.50;;
68234;SDS011;55052;52.056;5.296;2024-03-08T04:27:33;32.83;;;17.73;;
68234;SDS011;55052;52.056;5.296;2024-03-08T04:30:01;33.95;;;18.60;;
68234;SDS011;55052;52.056;5.296;2024-03-08T04:32:28;29.23;;;18.20;;
68234;SDS011;55052;52.056;5.296;2024-03-08T04:34:56;30.92;;;18.60;;
68234;SDS011;55052;52.056;5.296;2024-03-08T04:37:23;30.88;;;18.45;;
68234;SDS011;55052;52.056;5.296;2024-03-08T04:39:51;29.63;;;18.77;;
68234;SDS011;55052;52.056;5.296;2024-03-08T04:42:18;31.45;;;17.90;;
68234;SDS011;55052;52.056;5.296;2024-03-08T04:44:45;34.88;;;18.75;;
68234;SDS011;55052;52.056;5.296;2024-03-08T04:47:12;31.98;;;17.95;;
68234;SDS011;55052;52.056;5.296;2024-03-08T04:49:39;29.95;;;18.33;;
68234;SDS011;55052;52.056;5.296;2024-03-08T04:52:05;31.08;;;18.30;;
68234;SDS011;55052;52.056;5.296;2024-03-08T04:54:33;30.77;;;18.88;;
68234;SDS011;55052;52.056;5.296;2024-03-08T04:57:00;28.08;;;17.30;;
68234;SDS011;55052;52.056;5.296;2024-03-08T04:59:32;31.55;;;17.80;;
68234;SDS011;55052;52.056;5.296;2024-03-08T05:01:59;30.30;;;17.85;;
68234;SDS011;55052;52.056;5.296;2024-03-08T05:04:26;29.33;;;18.00;;
68234;SDS011;55052;52.056;5.296;2024-03-08T05:06:52;29.38;;;18.38;;
68234;SDS011;55052;52.056;5.296;2024-03-08T05:09:20;31.08;;;17.83;;
68234;SDS011;55052;52.056;5.296;2024-03-08T05:11:47;33.28;;;19.38;;
68234;SDS011;55052;52.056;5.296;2024-03-08T05:14:14;32.20;;;18.45;;
68234;SDS011;55052;52.056;5.296;2024-03-08T05:16:46;30.25;;;18.27;;
68234;SDS011;55052;52.056;5.296;2024-03-08T05:19:16;32.08;;;19.77;;
68234;SDS011;55052;52.056;5.296;2024-03-08T05:21:44;30.33;;;18.25;;
68234;SDS011;55052;52.056;5.296;2024-03-08T05:24:12;30.45;;;18.55;;
68234;SDS011;55052;52.056;5.296;2024-03-08T05:26:39;31.10;;;18.88;;
68234;SDS011;55052;52.056;5.296;2024-03-08T05:29:06;35.03;;;19.25;;
68234;SDS011;55052;52.056;5.296;2024-03-08T05:31:48;33.08;;;19.30;;
68234;SDS011;55052;52.056;5.296;2024-03-08T05:34:16;29.65;;;18.55;;
68234;SDS011;55052;52.056;5.296;2024-03-08T05:36:43;29.73;;;18.58;;
68234;SDS011;55052;52.056;5.296;2024-03-08T05:39:15;30.55;;;17.48;;
68234;SDS011;55052;52.056;5.296;2024-03-08T05:41:43;35.20;;;19.58;;
68234;SDS011;55052;52.056;5.296;2024-03-08T05:44:12;34.53;;;18.90;;
68234;SDS011;55052;52.056;5.296;2024-03-08T05:46:39;36.50;;;19.65;;
68234;SDS011;55052;52.056;5.296;2024-03-08T05:49:06;31.58;;;19.25;;
68234;SDS011;55052;52.056;5.296;2024-03-08T05:51:37;33.13;;;19.90;;
68234;SDS011;55052;52.056;5.296;2024-03-08T05:54:06;32.80;;;18.58;;
68234;SDS011;55052;52.056;5.296;2024-03-08T05:56:39;32.42;;;18.58;;
68234;SDS011;55052;52.056;5.296;2024-03-08T05:59:11;33.92;;;19.40;;
68234;SDS011;55052;52.056;5.296;2024-03-08T06:01:39;33.10;;;19.15;;
68234;SDS011;55052;52.056;5.296;2024-03-08T06:04:08;32.92;;;20.10;;
68234;SDS011;55052;52.056;5.296;2024-03-08T06:06:38;30.33;;;18.10;;
68234;SDS011;55052;52.056;5.296;2024-03-08T06:09:06;32.92;;;18.77;;
68234;SDS011;55052;52.056;5.296;2024-03-08T06:11:38;30.13;;;18.45;;
68234;SDS011;55052;52.056;5.296;2024-03-08T06:14:05;33.13;;;19.10;;
68234;SDS011;55052;52.056;5.296;2024-03-08T06:16:33;34.20;;;18.98;;
68234;SDS011;55052;52.056;5.296;2024-03-08T06:19:00;31.50;;;18.23;;
68234;SDS011;55052;52.056;5.296;2024-03-08T06:21:29;33.85;;;19.52;;
68234;SDS011;55052;52.056;5.296;2024-03-08T06:23:55;33.08;;;18.83;;
68234;SDS011;55052;52.056;5.296;2024-03-08T06:26:24;33.53;;;19.23;;
68234;SDS011;55052;52.056;5.296;2024-03-08T06:28:55;33.88;;;19.85;;
68234;SDS011;55052;52.056;5.296;2024-03-08T06:31:23;32.33;;;19.77;;
68234;SDS011;55052;52.056;5.296;2024-03-08T06:33:50;31.05;;;18.27;;
68234;SDS011;55052;52.056;5.296;2024-03-08T06:36:17;34.15;;;19.85;;
68234;SDS011;55052;52.056;5.296;2024-03-08T06:38:45;32.90;;;19.45;;
68234;SDS011;55052;52.056;5.296;2024-03-08T06:41:12;36.08;;;19.92;;
68234;SDS011;55052;52.056;5.296;2024-03-08T06:43:42;35.05;;;19.27;;
68234;SDS011;55052;52.056;5.296;2024-03-08T06:46:09;33.17;;;19.60;;
68234;SDS011;55052;52.056;5.296;2024-03-08T06:48:39;34.80;;;19.55;;
68234;SDS011;55052;52.056;5.296;2024-03-08T06:51:06;37.53;;;19.95;;
68234;SDS011;55052;52.056;5.296;2024-03-08T06:53:34;35.47;;;19.88;;
68234;SDS011;55052;52.056;5.296;2024-03-08T06:56:01;35.17;;;19.80;;
68234;SDS011;55052;52.056;5.296;2024-03-08T06:58:28;33.08;;;19.17;;
68234;SDS011;55052;52.056;5.296;2024-03-08T07:00:55;34.58;;;19.85;;
68234;SDS011;55052;52.056;5.296;2024-03-08T07:03:27;35.25;;;19.58;;
68234;SDS011;55052;52.056;5.296;2024-03-08T07:05:56;34.78;;;20.00;;
68234;SDS011;55052;52.056;5.296;2024-03-08T07:08:28;31.20;;;18.92;;
68234;SDS011;55052;52.056;5.296;2024-03-08T07:10:54;36.67;;;19.63;;
68234;SDS011;55052;52.056;5.296;2024-03-08T07:13:21;32.58;;;19.45;;
68234;SDS011;55052;52.056;5.296;2024-03-08T07:15:48;34.92;;;18.92;;
68234;SDS011;55052;52.056;5.296;2024-03-08T07:18:15;36.47;;;19.88;;
68234;SDS011;55052;52.056;5.296;2024-03-08T07:20:42;34.80;;;18.98;;
68234;SDS011;55052;52.056;5.296;2024-03-08T07:23:12;36.17;;;20.38;;
68234;SDS011;55052;52.056;5.296;2024-03-08T07:25:59;34.25;;;20.15;;
68234;SDS011;55052;52.056;5.296;2024-03-08T07:28:27;32.25;;;19.10;;
68234;SDS011;55052;52.056;5.296;2024-03-08T07:30:57;31.20;;;18.90;;
68234;SDS011;55052;52.056;5.296;2024-03-08T07:33:39;35.08;;;19.83;;
68234;SDS011;55052;52.056;5.296;2024-03-08T07:36:06;37.10;;;19.25;;
68234;SDS011;55052;52.056;5.296;2024-03-08T07:38:34;34.72;;;19.20;;
68234;SDS011;55052;52.056;5.296;2024-03-08T07:41:01;33.35;;;19.55;;
68234;SDS011;55052;52.056;5.296;2024-03-08T07:43:31;32.78;;;19.55;;
68234;SDS011;55052;52.056;5.296;2024-03-08T07:45:59;34.88;;;19.98;;
68234;SDS011;55052;52.056;5.296;2024-03-08T07:48:25;32.67;;;20.17;;
68234;SDS011;55052;52.056;5.296;2024-03-08T07:50:53;32.83;;;19.48;;
68234;SDS011;55052;52.056;5.296;2024-03-08T07:53:20;34.67;;;19.33;;
68234;SDS011;55052;52.056;5.296;2024-03-08T07:55:47;32.65;;;18.60;;
68234;SDS011;55052;52.056;5.296;2024-03-08T07:58:14;36.42;;;19.83;;
68234;SDS011;55052;52.056;5.296;2024-03-08T08:00:41;29.95;;;18.70;;
68234;SDS011;55052;52.056;5.296;2024-03-08T08:03:09;33.63;;;19.77;;
68234;SDS011;55052;52.056;5.296;2024-03-08T08:05:36;33.67;;;21.23;;
68234;SDS011;55052;52.056;5.296;2024-03-08T08:08:05;31.70;;;20.15;;
68234;SDS011;55052;52.056;5.296;2024-03-08T08:10:33;32.28;;;19.65;;
68234;SDS011;55052;52.056;5.296;2024-03-08T08:13:00;32.22;;;19.98;;
68234;SDS011;55052;52.056;5.296;2024-03-08T08:15:29;31.65;;;20.20;;
68234;SDS011;55052;52.056;5.296;2024-03-08T08:17:56;33.00;;;18.83;;
68234;SDS011;55052;52.056;5.296;2024-03-08T08:20:23;36.00;;;20.10;;
68234;SDS011;55052;52.056;5.296;2024-03-08T08:22:50;33.67;;;20.35;;
68234;SDS011;55052;52.056;5.296;2024-03-08T08:25:16;30.88;;;18.30;;
68234;SDS011;55052;52.056;5.296;2024-03-08T08:27:47;34.40;;;21.30;;
68234;SDS011;55052;52.056;5.296;2024-03-08T08:30:13;34.35;;;20.08;;
68234;SDS011;55052;52.056;5.296;2024-03-08T08:32:40;35.78;;;18.60;;
68234;SDS011;55052;52.056;5.296;2024-03-08T08:35:11;31.63;;;20.10;;
68234;SDS011;55052;52.056;5.296;2024-03-08T08:37:39;32.13;;;19.55;;
68234;SDS011;55052;52.056;5.296;2024-03-08T08:40:06;35.05;;;18.92;;
68234;SDS011;55052;52.056;5.296;2024-03-08T08:42:41;33.28;;;19.30;;
68234;SDS011;55052;52.056;5.296;2024-03-08T08:45:08;33.63;;;20.13;;
68234;SDS011;55052;52.056;5.296;2024-03-08T08:47:43;33.85;;;19.63;;
68234;SDS011;55052;52.056;5.296;2024-03-08T08:50:12;34.80;;;19.60;;
68234;SDS011;55052;52.056;5.296;2024-03-08T08:52:39;33.88;;;19.48;;
68234;SDS011;55052;52.056;5.296;2024-03-08T08:55:07;34.50;;;19.98;;
68234;SDS011;55052;52.056;5.296;2024-03-08T08:57:34;32.47;;;19.65;;
68234;SDS011;55052;52.056;5.296;2024-03-08T09:00:02;30.70;;;18.80;;
68234;SDS011;55052;52.056;5.296;2024-03-08T09:02:34;33.17;;;19.30;;
68234;SDS011;55052;52.056;5.296;2024-03-08T09:05:01;31.60;;;19.38;;
68234;SDS011;55052;52.056;5.296;2024-03-08T09:07:29;31.92;;;19.75;;
68234;SDS011;55052;52.056;5.296;2024-03-08T09:09:56;34.10;;;20.15;;
68234;SDS011;55052;52.056;5.296;2024-03-08T09:12:25;33.20;;;19.83;;
68234;SDS011;55052;52.056;5.296;2024-03-08T09:14:52;33.78;;;20.13;;
68234;SDS011;55052;52.056;5.296;2024-03-08T09:17:19;34.47;;;20.13;;
68234;SDS011;55052;52.056;5.296;2024-03-08T09:19:49;30.47;;;18.77;;
68234;SDS011;55052;52.056;5.296;2024-03-08T09:22:16;32.80;;;19.50;;
68234;SDS011;55052;52.056;5.296;2024-03-08T09:24:44;33.80;;;19.00;;
68234;SDS011;55052;52.056;5.296;2024-03-08T09:27:12;31.48;;;19.83;;
68234;SDS011;55052;52.056;5.296;2024-03-08T09:29:40;30.58;;;19.13;;
68234;SDS011;55052;52.056;5.296;2024-03-08T09:32:07;29.08;;;18.25;;
68234;SDS011;55052;52.056;5.296;2024-03-08T09:34:34;31.33;;;18.80;;
68234;SDS011;55052;52.056;5.296;2024-03-08T09:37:03;33.20;;;18.58;;
68234;SDS011;55052;52.056;5.296;2024-03-08T09:39:31;35.72;;;19.45;;
68234;SDS011;55052;52.056;5.296;2024-03-08T09:42:00;32.60;;;18.67;;
68234;SDS011;55052;52.056;5.296;2024-03-08T09:44:28;34.88;;;18.17;;
68234;SDS011;55052;52.056;5.296;2024-03-08T09:46:55;35.10;;;18.33;;
68234;SDS011;55052;52.056;5.296;2024-03-08T09:49:24;31.17;;;18.35;;
68234;SDS011;55052;52.056;5.296;2024-03-08T09:51:51;29.25;;;17.85;;
68234;SDS011;55052;52.056;5.296;2024-03-08T09:54:19;29.38;;;18.13;;
68234;SDS011;55052;52.056;5.296;2024-03-08T09:56:50;28.77;;;18.48;;
68234;SDS011;55052;52.056;5.296;2024-03-08T09:59:18;28.00;;;17.45;;
68234;SDS011;55052;52.056;5.296;2024-03-08T10:01:54;33.40;;;18.42;;
68234;SDS011;55052;52.056;5.296;2024-03-08T10:04:22;29.13;;;16.63;;
68234;SDS011;55052;52.056;5.296;2024-03-08T10:06:49;28.77;;;17.67;;
68234;SDS011;55052;52.056;5.296;2024-03-08T10:09:16;26.60;;;17.13;;
68234;SDS011;55052;52.056;5.296;2024-03-08T10:11:43;31.77;;;17.63;;
68234;SDS011;55052;52.056;5.296;2024-03-08T10:14:11;30.45;;;17.55;;
68234;SDS011;55052;52.056;5.296;2024-03-08T10:16:38;27.63;;;16.98;;
68234;SDS011;55052;52.056;5.296;2024-03-08T10:19:06;27.92;;;16.60;;
68234;SDS011;55052;52.056;5.296;2024-03-08T10:21:34;24.95;;;15.73;;
68234;SDS011;55052;52.056;5.296;2024-03-08T10:24:02;26.27;;;15.60;;
68234;SDS011;55052;52.056;5.296;2024-03-08T10:26:29;23.48;;;14.80;;
68234;SDS011;55052;52.056;5.296;2024-03-08T10:28:57;26.85;;;15.02;;
68234;SDS011;55052;52.056;5.296;2024-03-08T10:31:24;23.73;;;14.48;;
68234;SDS011;55052;52.056;5.296;2024-03-08T10:33:52;26.08;;;15.20;;
68234;SDS011;55052;52.056;5.296;2024-03-08T10:36:19;28.30;;;16.33;;
68234;SDS011;55052;52.056;5.296;2024-03-08T10:38:46;25.25;;;15.68;;
68234;SDS011;55052;52.056;5.296;2024-03-08T10:41:16;25.25;;;14.93;;
68234;SDS011;55052;52.056;5.296;2024-03-08T10:49:40;24.42;;;15.55;;
68234;SDS011;55052;52.056;5.296;2024-03-08T10:52:30;25.55;;;15.27;;
68234;SDS011;55052;52.056;5.296;2024-03-08T10:54:58;25.33;;;15.10;;
68234;SDS011;55052;52.056;5.296;2024-03-08T10:57:26;24.95;;;15.73;;
68234;SDS011;55052;52.056;5.296;2024-03-08T10:59:53;27.23;;;15.60;;
68234;SDS011;55052;52.056;5.296;2024-03-08T11:02:25;22.85;;;14.02;;
68234;SDS011;55052;52.056;5.296;2024-03-08T11:04:53;23.73;;;13.95;;
68234;SDS011;55052;52.056;5.296;2024-03-08T11:07:23;24.00;;;14.88;;
68234;SDS011;55052;52.056;5.296;2024-03-08T11:09:53;21.80;;;13.57;;
68234;SDS011;55052;52.056;5.296;2024-03-08T11:12:23;24.92;;;14.38;;
68234;SDS011;55052;52.056;5.296;2024-03-08T11:14:55;22.80;;;14.35;;
68234;SDS011;55052;52.056;5.296;2024-03-08T11:19:58;25.10;;;13.50;;
68234;SDS011;55052;52.056;5.296;2024-03-08T11:22:28;22.30;;;14.32;;
68234;SDS011;55052;52.056;5.296;2024-03-08T11:25:02;21.23;;;13.30;;
68234;SDS011;55052;52.056;5.296;2024-03-08T11:27:35;20.98;;;13.40;;
68234;SDS011;55052;52.056;5.296;2024-03-08T11:30:06;21.85;;;12.75;;
68234;SDS011;55052;52.056;5.296;2024-03-08T11:32:44;22.83;;;13.75;;
68234;SDS011;55052;52.056;5.296;2024-03-08T11:35:21;21.75;;;13.07;;
68234;SDS011;55052;52.056;5.296;2024-03-08T11:37:51;18.48;;;12.15;;
68234;SDS011;55052;52.056;5.296;2024-03-08T11:40:18;19.25;;;11.80;;
68234;SDS011;55052;52.056;5.296;2024-03-08T11:42:49;19.23;;;12.25;;
68234;SDS011;55052;52.056;5.296;2024-03-08T11:45:18;18.98;;;11.77;;
68234;SDS011;55052;52.056;5.296;2024-03-08T11:47:47;18.70;;;11.85;;
68234;SDS011;55052;52.056;5.296;2024-03-08T11:50:16;19.77;;;11.88;;
68234;SDS011;55052;52.056;5.296;2024-03-08T11:52:45;18.15;;;10.75;;
68234;SDS011;55052;52.056;5.296;2024-03-08T11:55:13;18.50;;;11.23;;
68234;SDS011;55052;52.056;5.296;2024-03-08T11:57:40;19.77;;;11.27;;
68234;SDS011;55052;52.056;5.296;2024-03-08T12:00:14;17.33;;;11.32;;
68234;SDS011;55052;52.056;5.296;2024-03-08T12:03:00;19.40;;;11.88;;
68234;SDS011;55052;52.056;5.296;2024-03-08T12:05:31;19.92;;;11.95;;
68234;SDS011;55052;52.056;5.296;2024-03-08T12:08:00;18.55;;;12.15;;
68234;SDS011;55052;52.056;5.296;2024-03-08T12:10:33;18.30;;;11.85;;
68234;SDS011;55052;52.056;5.296;2024-03-08T12:13:01;18.60;;;12.50;;
68234;SDS011;55052;52.056;5.296;2024-03-08T12:15:37;21.10;;;12.23;;
68234;SDS011;55052;52.056;5.296;2024-03-08T12:18:05;20.92;;;12.43;;
68234;SDS011;55052;52.056;5.296;2024-03-08T12:20:33;19.92;;;12.30;;
68234;SDS011;55052;52.056;5.296;2024-03-08T12:23:00;19.73;;;12.23;;
68234;SDS011;55052;52.056;5.296;2024-03-08T12:25:30;19.17;;;12.00;;
68234;SDS011;55052;52.056;5.296;2024-03-08T12:28:08;16.98;;;11.20;;
68234;SDS011;55052;52.056;5.296;2024-03-08T12:30:58;19.38;;;11.93;;
68234;SDS011;55052;52.056;5.296;2024-03-08T12:33:27;17.70;;;12.13;;
68234;SDS011;55052;52.056;5.296;2024-03-08T12:35:55;18.60;;;12.13;;
68234;SDS011;55052;52.056;5.296;2024-03-08T12:38:27;20.17;;;12.40;;
68234;SDS011;55052;52.056;5.296;2024-03-08T12:40:55;23.05;;;13.07;;
68234;SDS011;55052;52.056;5.296;2024-03-08T12:43:23;20.58;;;12.80;;
68234;SDS011;55052;52.056;5.296;2024-03-08T12:45:50;18.13;;;12.13;;
68234;SDS011;55052;52.056;5.296;2024-03-08T12:48:19;19.05;;;12.30;;
68234;SDS011;55052;52.056;5.296;2024-03-08T12:50:47;20.23;;;12.88;;
68234;SDS011;55052;52.056;5.296;2024-03-08T12:53:14;20.63;;;12.75;;
68234;SDS011;55052;52.056;5.296;2024-03-08T12:55:41;19.38;;;12.25;;
68234;SDS011;55052;52.056;5.296;2024-03-08T12:58:08;19.55;;;12.50;;
68234;SDS011;55052;52.056;5.296;2024-03-08T13:00:35;18.77;;;12.40;;
68234;SDS011;55052;52.056;5.296;2024-03-08T13:03:03;18.92;;;11.75;;
68234;SDS011;55052;52.056;5.296;2024-03-08T13:05:30;20.35;;;12.40;;
68234;SDS011;55052;52.056;5.296;2024-03-08T13:07:57;19.38;;;13.02;;
68234;SDS011;55052;52.056;5.296;2024-03-08T13:10:24;19.20;;;12.57;;
68234;SDS011;55052;52.056;5.296;2024-03-08T13:12:51;18.55;;;11.75;;
68234;SDS011;55052;52.056;5.296;2024-03-08T13:15:20;21.58;;;12.18;;
68234;SDS011;55052;52.056;5.296;2024-03-08T13:17:47;20.33;;;13.00;;
68234;SDS011;55052;52.056;5.296;2024-03-08T13:20:15;21.23;;;13.75;;
68234;SDS011;55052;52.056;5.296;2024-03-08T13:22:56;20.95;;;13.30;;
68234;SDS011;55052;52.056;5.296;2024-03-08T13:25:23;22.02;;;13.27;;
68234;SDS011;55052;52.056;5.296;2024-03-08T13:27:50;21.17;;;12.55;;
68234;SDS011;55052;52.056;5.296;2024-03-08T13:30:20;23.47;;;14.17;;
68234;SDS011;55052;52.056;5.296;2024-03-08T13:32:51;22.55;;;13.98;;
68234;SDS011;55052;52.056;5.296;2024-03-08T13:35:19;20.63;;;12.88;;
68234;SDS011;55052;52.056;5.296;2024-03-08T13:37:51;20.60;;;13.00;;
68234;SDS011;55052;52.056;5.296;2024-03-08T13:40:18;20.73;;;13.65;;
68234;SDS011;55052;52.056;5.296;2024-03-08T13:42:47;21.02;;;14.48;;
68234;SDS011;55052;52.056;5.296;2024-03-08T13:45:15;19.48;;;13.52;;
68234;SDS011;55052;52.056;5.296;2024-03-08T13:47:53;22.58;;;13.13;;
68234;SDS011;55052;52.056;5.296;2024-03-08T13:50:21;20.38;;;13.43;;
68234;SDS011;55052;52.056;5.296;2024-03-08T13:52:49;20.73;;;13.98;;
68234;SDS011;55052;52.056;5.296;2024-03-08T13:55:20;21.67;;;13.70;;
68234;SDS011;55052;52.056;5.296;2024-03-08T13:57:52;20.33;;;13.38;;
68234;SDS011;55052;52.056;5.296;2024-03-08T14:00:19;20.92;;;13.52;;
68234;SDS011;55052;52.056;5.296;2024-03-08T14:02:49;21.35;;;13.95;;
68234;SDS011;55052;52.056;5.296;2024-03-08T14:05:16;29.30;;;13.55;;
68234;SDS011;55052;52.056;5.296;2024-03-08T14:07:46;20.13;;;12.93;;
68234;SDS011;55052;52.056;5.296;2024-03-08T14:10:16;21.75;;;13.60;;
68234;SDS011;55052;52.056;5.296;2024-03-08T14:12:47;22.45;;;13.50;;
68234;SDS011;55052;52.056;5.296;2024-03-08T14:15:15;24.00;;;12.90;;
68234;SDS011;55052;52.056;5.296;2024-03-08T14:17:43;21.48;;;13.60;;
68234;SDS011;55052;52.056;5.296;2024-03-08T14:20:13;20.13;;;13.50;;
68234;SDS011;55052;52.056;5.296;2024-03-08T14:22:41;23.65;;;14.38;;
68234;SDS011;55052;52.056;5.296;2024-03-08T14:25:08;20.75;;;13.98;;
68234;SDS011;55052;52.056;5.296;2024-03-08T14:27:44;25.00;;;14.73;;
68234;SDS011;55052;52.056;5.296;2024-03-08T14:30:11;23.40;;;14.23;;
68234;SDS011;55052;52.056;5.296;2024-03-08T14:32:40;21.90;;;14.15;;
68234;SDS011;55052;52.056;5.296;2024-03-08T14:35:08;20.77;;;13.23;;
68234;SDS011;55052;52.056;5.296;2024-03-08T14:37:37;23.10;;;14.35;;